Skip Navigation LinksHome page > Weather > Current weather Skip Navigation Links

Current Weather

Moundou, Chad

For information only: do not use for flight planning or navigation.
Latest weather
Observation time Friday, February 12, 2016 10:00 AM WAT
Local time Friday, February 12, 2016 10:37 AM WAT
Flight conditions Visual Meteorological Conditions
Winds
Wind direction North (360°)
Wind speed 5 mph
Visibility 6.2 mi.
Sky condition
Ceiling unlimited
Sky clear
Temperature 82°F
Dewpoint 28°F
Altimeter 29.97 in.Hg
Derived measurements
Relative humidity 14%
Heat index 82°F
Density altitude 1951 ft.
Remarks
Ceiling and visibility OK.
METAR FTTD 120900Z 36004KT CAVOK 28/M02 Q1015

Settings

Location code

InnerDrive.Weather 4.0.5722.1 Release CLR 4.0.30319.34209
Copyright ©2015 Inner Drive Technology. All rights reserved. Portions Copyright ©1986-2015 David Braverman.

Find weather

Site navigation


Skip Navigation Links

Place info

Page info

PayPal - The safer, easier way to pay online!

Return home.

Copyright ©2016 Inner Drive Technology. Purveyors of fine, hand-crafted computer software. Page printed 2016-02-12T09:37:23 UTC.